Time;durP1;ratioP1;P1;durP2;ratioP2;P2;SDS_P1;SDS_P2;PMS_P1;PMS_P2;Temp;Humidity;BMP_temperature;BMP_pressure;BME280_temperature;BME280_humidity;BME280_pressure;Samples;Min_cycle;Max_cycle;Signal;HPM_P1;HPM_P2
2023/06/11 00:00:02;;;;;;;3.60;3.30;;;24.00;53.40;;;;;;923723;152;27395;-75
2023/06/11 00:02:32;;;;;;;4.40;3.95;;;24.00;53.50;;;;;;921882;152;27783;-75
2023/06/11 00:04:57;;;;;;;3.90;3.60;;;24.00;53.50;;;;;;922516;152;27235;-75
2023/06/11 00:07:21;;;;;;;4.47;4.12;;;24.00;53.60;;;;;;918000;154;27344;-75
2023/06/11 00:09:48;;;;;;;4.35;4.05;;;24.00;53.60;;;;;;917234;154;27375;-75
2023/06/11 00:12:15;;;;;;;4.10;3.80;;;24.00;53.70;;;;;;916233;154;27506;-75
2023/06/11 00:14:41;;;;;;;4.37;4.08;;;24.00;54.30;;;;;;916990;153;27351;-75
2023/06/11 00:17:08;;;;;;;4.30;4.00;;;24.00;53.70;;;;;;923697;152;27553;-75
2023/06/11 00:19:34;;;;;;;4.67;3.67;;;24.00;53.80;;;;;;907528;155;27417;-75
2023/06/11 00:22:02;;;;;;;4.10;3.80;;;23.90;53.80;;;;;;907613;155;27358;-75
2023/06/11 00:24:28;;;;;;;4.17;3.87;;;23.90;53.90;;;;;;904410;156;27765;-75
2023/06/11 00:26:55;;;;;;;4.40;4.00;;;23.90;54.00;;;;;;918214;154;27360;-75
2023/06/11 00:29:21;;;;;;;3.98;3.67;;;23.90;54.00;;;;;;918280;151;27444;-75
2023/06/11 00:31:47;;;;;;;4.62;4.10;;;23.90;54.00;;;;;;916557;154;27317;-75
2023/06/11 00:34:14;;;;;;;4.05;3.75;;;23.80;54.60;;;;;;916737;154;27740;-75
2023/06/11 00:36:41;;;;;;;4.60;4.30;;;23.80;54.10;;;;;;917582;153;27423;-75
2023/06/11 00:39:07;;;;;;;4.33;3.80;;;23.80;54.30;;;;;;923217;152;27352;-75
2023/06/11 00:41:34;;;;;;;4.10;3.70;;;23.80;54.40;;;;;;890650;155;27485;-75
2023/06/11 00:44:02;;;;;;;4.70;4.30;;;23.70;54.40;;;;;;892507;155;27451;-75
2023/06/11 00:46:27;;;;;;;3.92;3.58;;;23.70;54.50;;;;;;890380;155;27479;-75
2023/06/11 00:48:53;;;;;;;4.03;3.72;;;23.60;54.50;;;;;;891905;155;27536;-75
2023/06/11 00:51:23;;;;;;;3.75;3.47;;;23.60;54.50;;;;;;892322;155;27419;-75
2023/06/11 00:53:51;;;;;;;4.40;4.00;;;23.60;54.60;;;;;;922427;152;28178;-75
2023/06/11 00:56:17;;;;;;;4.10;3.80;;;23.60;54.70;;;;;;922617;152;27744;-75
2023/06/11 00:58:44;;;;;;;4.15;3.77;;;23.50;54.80;;;;;;922073;152;28149;-75
2023/06/11 01:01:09;;;;;;;4.42;3.90;;;23.50;54.90;;;;;;906675;155;27349;-75
2023/06/11 01:03:36;;;;;;;3.80;3.50;;;23.50;54.90;;;;;;923034;151;27326;-75
2023/06/11 01:06:11;;;;;;;4.47;4.08;;;23.50;54.90;;;;;;918362;153;27398;-75
2023/06/11 01:08:39;;;;;;;3.92;3.70;;;23.50;55.00;;;;;;921066;152;27418;-75
2023/06/11 01:11:08;;;;;;;4.15;3.25;;;23.50;55.00;;;;;;906312;155;27336;-75
2023/06/11 01:13:30;;;;;;;3.95;3.65;;;23.40;55.00;;;;;;891489;155;27451;-75
2023/06/11 01:16:03;;;;;;;4.35;3.83;;;23.40;55.10;;;;;;890188;155;27434;-75
2023/06/11 01:18:30;;;;;;;4.15;3.85;;;23.30;55.20;;;;;;890241;155;27459;-75
2023/06/11 01:20:56;;;;;;;4.12;3.83;;;23.30;55.40;;;;;;917200;154;27633;-75
2023/06/11 01:23:33;;;;;;;4.50;3.90;;;23.30;55.40;;;;;;918647;154;27358;-75
2023/06/11 01:26:16;;;;;;;3.92;3.52;;;23.20;55.40;;;;;;916480;154;27382;-75
2023/06/11 01:28:44;;;;;;;4.05;3.75;;;23.20;55.50;;;;;;917807;153;27434;-75
2023/06/11 01:31:09;;;;;;;4.62;4.30;;;23.10;55.60;;;;;;908533;155;27420;-75
2023/06/11 01:33:36;;;;;;;3.85;3.55;;;23.10;55.70;;;;;;908242;155;27361;-75
2023/06/11 01:36:05;;;;;;;4.78;4.10;;;23.10;55.80;;;;;;918879;154;27444;-75
2023/06/11 01:38:41;;;;;;;4.15;3.85;;;23.00;55.90;;;;;;914869;154;27398;-75
2023/06/11 01:40:58;;;;;;;4.17;3.87;;;22.90;56.00;;;;;;917595;153;27433;-75
2023/06/11 01:43:25;;;;;;;4.30;4.00;;;22.90;56.00;;;;;;918706;153;27367;-75
2023/06/11 01:45:51;;;;;;;4.75;4.35;;;22.80;56.10;;;;;;918314;154;27509;-75
2023/06/11 01:48:18;;;;;;;4.45;4.15;;;22.80;56.20;;;;;;917002;154;27422;-75
2023/06/11 01:50:45;;;;;;;3.92;3.62;;;22.80;56.30;;;;;;919607;154;27864;-75
2023/06/11 01:53:12;;;;;;;3.58;3.37;;;22.70;56.40;;;;;;917417;154;27349;-75
2023/06/11 01:55:38;;;;;;;3.98;3.67;;;22.70;56.50;;;;;;917001;153;27384;-75
2023/06/11 01:58:04;;;;;;;4.12;3.83;;;22.60;56.60;;;;;;924681;152;27446;-75
2023/06/11 02:00:31;;;;;;;4.85;4.45;;;22.50;56.70;;;;;;917968;153;27478;-75
2023/06/11 02:03:01;;;;;;;4.55;3.95;;;22.50;56.80;;;;;;916749;154;27422;-75
2023/06/11 02:05:24;;;;;;;4.15;3.85;;;22.50;57.00;;;;;;917336;154;27652;-75
2023/06/11 02:07:51;;;;;;;4.35;3.95;;;22.40;57.00;;;;;;917670;154;27496;-75
2023/06/11 02:10:17;;;;;;;3.52;3.33;;;22.40;56.60;;;;;;917210;153;27415;-75
2023/06/11 02:12:44;;;;;;;4.17;3.80;;;22.30;57.20;;;;;;915902;154;27486;-75
2023/06/11 02:15:11;;;;;;;5.33;4.80;;;22.30;57.40;;;;;;917647;154;27465;-75
2023/06/11 02:17:37;;;;;;;4.53;4.12;;;22.30;57.50;;;;;;916512;154;27475;-75
2023/06/11 02:20:08;;;;;;;4.83;4.42;;;22.20;57.50;;;;;;918883;153;27474;-75
2023/06/11 02:22:36;;;;;;;4.37;3.98;;;22.20;57.60;;;;;;916373;153;27504;-75
2023/06/11 02:25:03;;;;;;;4.37;4.08;;;22.10;57.70;;;;;;916640;154;27358;-75
2023/06/11 02:27:30;;;;;;;4.60;4.20;;;22.10;57.80;;;;;;919620;154;27440;-75
2023/06/11 02:29:56;;;;;;;5.62;4.12;;;22.10;58.00;;;;;;917073;151;27474;-75
2023/06/11 02:32:23;;;;;;;5.62;5.12;;;22.00;58.00;;;;;;917110;154;27407;-75
2023/06/11 02:34:49;;;;;;;6.22;4.70;;;22.00;58.10;;;;;;917355;154;27510;-75
2023/06/11 02:37:16;;;;;;;4.67;4.25;;;21.90;58.20;;;;;;915818;153;27375;-75
2023/06/11 02:39:42;;;;;;;4.60;4.22;;;21.90;58.30;;;;;;917084;153;27322;-75
2023/06/11 02:42:09;;;;;;;4.45;4.05;;;21.90;58.50;;;;;;915527;154;27423;-75
2023/06/11 02:44:35;;;;;;;4.90;4.50;;;21.80;58.50;;;;;;916646;153;27411;-75
2023/06/11 02:47:02;;;;;;;5.03;4.62;;;21.80;58.50;;;;;;918197;154;27311;-75
2023/06/11 02:49:29;;;;;;;5.83;4.50;;;21.70;58.60;;;;;;917047;154;27424;-75
2023/06/11 02:51:55;;;;;;;5.28;4.78;;;21.70;58.70;;;;;;915390;154;27431;-74
2023/06/11 02:54:22;;;;;;;5.08;4.67;;;21.60;58.90;;;;;;917815;154;27415;-75
2023/06/11 02:56:48;;;;;;;4.75;4.45;;;21.60;59.00;;;;;;917092;154;27386;-75
2023/06/11 02:59:15;;;;;;;4.85;4.45;;;21.50;59.10;;;;;;915420;154;27363;-75
2023/06/11 03:01:42;;;;;;;4.25;3.95;;;21.50;59.20;;;;;;916388;154;27459;-75
2023/06/11 03:04:08;;;;;;;5.60;4.62;;;21.40;59.40;;;;;;915615;154;27362;-75
2023/06/11 03:06:35;;;;;;;5.65;4.87;;;21.30;59.50;;;;;;916899;154;27493;-75
2023/06/11 03:09:01;;;;;;;4.40;4.00;;;21.30;60.20;;;;;;898383;155;27394;-75
2023/06/11 03:11:28;;;;;;;4.72;4.33;;;21.20;59.80;;;;;;927240;152;27305;-75
2023/06/11 03:13:55;;;;;;;4.90;4.50;;;21.10;59.90;;;;;;917985;154;27497;-75
2023/06/11 03:16:21;;;;;;;4.60;4.20;;;21.00;60.00;;;;;;918701;154;27383;-75
2023/06/11 03:18:48;;;;;;;4.87;4.40;;;21.00;60.20;;;;;;915319;154;27371;-75
2023/06/11 03:21:14;;;;;;;4.50;4.20;;;20.90;60.30;;;;;;927047;152;27450;-75
2023/06/11 03:23:41;;;;;;;5.35;4.85;;;20.90;60.50;;;;;;929423;151;27298;-75
2023/06/11 03:26:07;;;;;;;4.83;4.42;;;20.80;60.70;;;;;;915367;154;27453;-75
2023/06/11 03:28:34;;;;;;;5.83;4.67;;;20.80;61.00;;;;;;915117;154;27550;-75
2023/06/11 03:31:01;;;;;;;4.60;4.25;;;20.80;61.20;;;;;;916485;154;27492;-75
2023/06/11 03:33:27;;;;;;;4.47;4.12;;;20.70;61.40;;;;;;915504;154;27352;-75
2023/06/11 03:35:54;;;;;;;4.75;4.35;;;20.70;61.50;;;;;;916810;154;27488;-75
2023/06/11 03:38:20;;;;;;;5.60;5.20;;;20.70;61.70;;;;;;916793;154;27484;-75
2023/06/11 03:40:47;;;;;;;4.97;4.58;;;20.70;62.00;;;;;;915521;154;27395;-75
2023/06/11 03:43:14;;;;;;;4.95;4.45;;;20.70;62.10;;;;;;917672;154;27376;-75
2023/06/11 03:45:40;;;;;;;5.55;5.15;;;20.70;62.30;;;;;;915223;154;27458;-75
2023/06/11 03:48:08;;;;;;;5.33;4.90;;;20.70;62.50;;;;;;916398;154;27371;-75
2023/06/11 03:50:33;;;;;;;5.62;4.80;;;20.70;62.50;;;;;;915712;154;27882;-75
2023/06/11 03:53:00;;;;;;;5.78;4.70;;;20.70;62.60;;;;;;917182;153;27385;-75
2023/06/11 03:55:27;;;;;;;5.15;4.75;;;20.80;62.80;;;;;;918329;153;27376;-75
2023/06/11 03:57:53;;;;;;;5.50;5.00;;;20.80;62.90;;;;;;916997;154;27321;-75
2023/06/11 04:00:20;;;;;;;4.78;4.37;;;20.80;62.90;;;;;;918110;154;27359;-75
2023/06/11 04:02:46;;;;;;;5.62;5.22;;;20.90;62.90;;;;;;918447;153;27412;-75
2023/06/11 04:05:13;;;;;;;5.87;5.22;;;20.90;63.00;;;;;;907679;155;27385;-75
2023/06/11 04:07:40;;;;;;;5.30;4.90;;;20.90;63.00;;;;;;903881;156;27314;-75
2023/06/11 04:10:06;;;;;;;5.83;5.33;;;21.00;63.10;;;;;;924224;152;27363;-75
2023/06/11 04:12:33;;;;;;;5.45;5.05;;;21.00;63.10;;;;;;906345;155;27407;-75
2023/06/11 04:15:00;;;;;;;6.10;5.22;;;21.00;63.10;;;;;;921472;152;27402;-75
2023/06/11 04:17:26;;;;;;;5.60;5.20;;;21.00;63.20;;;;;;922189;152;27340;-75
2023/06/11 04:19:53;;;;;;;5.65;5.20;;;21.10;63.30;;;;;;920197;152;27391;-75
2023/06/11 04:22:19;;;;;;;5.40;5.00;;;21.10;62.50;;;;;;890848;155;27660;-75
2023/06/11 04:24:46;;;;;;;5.25;4.65;;;21.20;63.20;;;;;;888642;155;27413;-75
2023/06/11 04:27:12;;;;;;;6.17;5.58;;;21.20;63.30;;;;;;916705;154;27484;-75
2023/06/11 04:29:40;;;;;;;5.85;4.55;;;21.30;63.50;;;;;;915649;154;27335;-75
2023/06/11 04:32:06;;;;;;;5.10;4.70;;;21.30;63.40;;;;;;917680;154;27450;-75
2023/06/11 04:34:33;;;;;;;5.65;5.10;;;21.40;63.50;;;;;;917791;153;27416;-75
2023/06/11 04:36:59;;;;;;;5.20;4.80;;;21.50;63.70;;;;;;917769;154;27490;-75
2023/06/11 04:39:26;;;;;;;5.58;5.17;;;21.50;63.60;;;;;;916694;154;27399;-75
2023/06/11 04:41:53;;;;;;;5.42;5.03;;;21.60;63.70;;;;;;907185;155;27388;-75
2023/06/11 04:44:22;;;;;;;5.67;5.20;;;21.60;63.70;;;;;;907837;155;27338;-75
2023/06/11 04:46:48;;;;;;;5.70;5.20;;;21.70;63.70;;;;;;901821;155;27504;-75
2023/06/11 04:49:20;;;;;;;6.37;5.85;;;21.80;63.50;;;;;;902758;155;27401;-75
2023/06/11 04:51:48;;;;;;;5.30;4.78;;;21.90;63.50;;;;;;903148;155;27428;-75
2023/06/11 04:54:13;;;;;;;5.37;4.97;;;22.00;63.40;;;;;;921497;152;27331;-75
2023/06/11 04:56:40;;;;;;;5.40;4.90;;;22.20;63.80;;;;;;914777;154;27379;-75
2023/06/11 04:59:06;;;;;;;5.00;4.60;;;22.40;64.60;;;;;;919792;154;27384;-75
2023/06/11 05:01:33;;;;;;;5.00;4.60;;;22.80;66.20;;;;;;919431;154;27363;-75
2023/06/11 05:04:00;;;;;;;4.50;4.17;;;23.20;65.90;;;;;;906960;153;27402;-75
2023/06/11 05:06:27;;;;;;;4.53;4.10;;;23.80;66.10;;;;;;904546;155;27401;-75
2023/06/11 05:08:53;;;;;;;4.53;4.22;;;24.50;65.90;;;;;;908563;155;27367;-75
2023/06/11 05:11:19;;;;;;;4.45;4.05;;;25.30;65.40;;;;;;901565;155;27351;-75
2023/06/11 05:13:46;;;;;;;4.00;3.75;;;26.20;64.70;;;;;;909935;152;27405;-75
2023/06/11 05:16:12;;;;;;;4.28;3.95;;;27.10;63.60;;;;;;917527;153;27332;-75
2023/06/11 05:18:39;;;;;;;4.53;4.10;;;28.00;62.30;;;;;;916950;153;27366;-75
2023/06/11 05:21:06;;;;;;;4.00;3.70;;;28.90;60.90;;;;;;916674;154;27404;-75
2023/06/11 05:23:33;;;;;;;3.52;3.25;;;29.80;59.30;;;;;;917071;154;27321;-75
2023/06/11 05:26:01;;;;;;;3.75;3.42;;;30.60;57.90;;;;;;920371;152;27412;-75
2023/06/11 05:28:26;;;;;;;3.40;3.20;;;31.40;56.60;;;;;;889016;155;27384;-76
2023/06/11 05:30:52;;;;;;;3.50;3.30;;;32.00;55.10;;;;;;890889;155;27398;-75
2023/06/11 05:33:20;;;;;;;3.30;3.00;;;32.70;54.00;;;;;;889786;155;27527;-75
2023/06/11 05:35:45;;;;;;;3.50;3.30;;;33.30;53.00;;;;;;891521;155;27892;-75
2023/06/11 05:38:12;;;;;;;3.77;3.40;;;33.80;52.00;;;;;;891151;155;27439;-76
2023/06/11 05:40:38;;;;;;;3.62;3.40;;;34.30;50.90;;;;;;917426;154;26401;-75
2023/06/11 05:43:05;;;;;;;4.85;2.67;;;34.80;50.20;;;;;;917553;154;26288;-75
2023/06/11 05:45:32;;;;;;;3.33;3.02;;;35.20;49.40;;;;;;922517;152;26418;-75
2023/06/11 05:47:58;;;;;;;3.27;3.02;;;35.60;48.50;;;;;;890596;155;26235;-75
2023/06/11 05:50:25;;;;;;;4.12;3.08;;;36.00;47.40;;;;;;898842;155;26301;-75
2023/06/11 05:52:51;;;;;;;3.77;3.47;;;36.30;46.50;;;;;;911855;151;26337;-75
2023/06/11 05:55:18;;;;;;;3.50;3.10;;;36.50;45.80;;;;;;905787;154;26387;-75
2023/06/11 05:57:45;;;;;;;4.03;3.15;;;36.80;45.20;;;;;;905550;154;26440;-75
2023/06/11 06:00:12;;;;;;;3.35;3.10;;;36.90;44.70;;;;;;908204;154;26374;-75
2023/06/11 06:02:38;;;;;;;3.00;2.80;;;37.20;44.10;;;;;;905534;154;26300;-75
2023/06/11 06:05:04;;;;;;;3.67;3.00;;;37.30;43.60;;;;;;916448;153;26323;-75
2023/06/11 06:07:31;;;;;;;3.25;2.95;;;37.50;43.10;;;;;;935154;151;26219;-76
2023/06/11 06:09:57;;;;;;;3.02;2.83;;;37.60;43.00;;;;;;938024;151;26263;-75
2023/06/11 06:12:24;;;;;;;3.10;2.90;;;37.80;42.80;;;;;;933931;150;27460;-75
2023/06/11 06:14:51;;;;;;;4.00;3.17;;;38.00;42.80;;;;;;912960;154;26316;-75
2023/06/11 06:17:17;;;;;;;3.17;2.80;;;38.40;42.50;;;;;;919423;154;26320;-75
2023/06/11 06:19:44;;;;;;;3.37;3.17;;;38.70;41.80;;;;;;937628;151;26315;-75
2023/06/11 06:22:10;;;;;;;2.98;2.77;;;39.00;41.30;;;;;;939018;151;26343;-75
2023/06/11 06:24:37;;;;;;;3.15;2.95;;;39.40;40.90;;;;;;936420;151;26219;-75
2023/06/11 06:27:04;;;;;;;2.90;2.70;;;39.70;40.30;;;;;;932879;151;26304;-75
2023/06/11 06:29:32;;;;;;;3.22;3.02;;;40.00;39.90;;;;;;936361;150;26327;-72
2023/06/11 06:31:57;;;;;;;3.02;2.83;;;40.20;39.60;;;;;;905275;154;26319;-74
2023/06/11 06:34:25;;;;;;;3.12;2.92;;;40.50;39.20;;;;;;905572;154;26288;-75
2023/06/11 06:36:50;;;;;;;2.77;2.60;;;40.80;38.70;;;;;;906854;154;26304;-74
2023/06/11 06:39:17;;;;;;;3.10;2.90;;;41.10;38.30;;;;;;906158;154;26401;-75
2023/06/11 06:41:43;;;;;;;3.00;2.80;;;41.40;37.60;;;;;;905496;154;26309;-75
2023/06/11 06:44:10;;;;;;;3.47;2.67;;;41.60;37.30;;;;;;906988;154;26293;-75
2023/06/11 06:46:36;;;;;;;2.87;2.67;;;41.90;36.90;;;;;;905608;154;26363;-75
2023/06/11 06:49:03;;;;;;;2.95;2.75;;;42.20;36.60;;;;;;905337;154;26363;-75
2023/06/11 06:51:29;;;;;;;3.27;3.00;;;42.50;35.90;;;;;;906842;154;26421;-75
2023/06/11 06:53:56;;;;;;;2.77;2.62;;;42.70;35.30;;;;;;906223;154;26421;-74
2023/06/11 06:56:23;;;;;;;2.92;2.65;;;42.80;34.70;;;;;;907517;154;26331;-74
2023/06/11 06:58:49;;;;;;;2.98;2.70;;;42.90;34.10;;;;;;905269;154;26245;-74
2023/06/11 07:01:16;;;;;;;3.00;2.80;;;42.90;33.90;;;;;;903990;154;26315;-74
2023/06/11 07:03:42;;;;;;;3.25;3.05;;;42.90;33.80;;;;;;905511;154;26301;-75
2023/06/11 07:06:09;;;;;;;3.20;3.00;;;42.90;33.50;;;;;;907574;154;26279;-75
2023/06/11 07:08:36;;;;;;;4.33;3.00;;;42.90;33.30;;;;;;905299;154;26351;-74
2023/06/11 07:11:02;;;;;;;2.90;2.70;;;42.80;33.10;;;;;;906888;154;26410;-75
2023/06/11 07:13:29;;;;;;;2.90;2.70;;;42.80;33.10;;;;;;906574;154;26418;-75
2023/06/11 07:15:55;;;;;;;2.90;2.75;;;42.90;33.10;;;;;;934235;151;26419;-75
2023/06/11 07:18:22;;;;;;;3.20;2.90;;;43.00;33.00;;;;;;937581;151;26262;-75
2023/06/11 07:20:49;;;;;;;3.45;2.98;;;43.10;32.70;;;;;;934423;151;26350;-75
2023/06/11 07:23:15;;;;;;;3.62;2.95;;;43.10;32.60;;;;;;935629;150;26298;-75
2023/06/11 07:25:43;;;;;;;3.00;2.80;;;43.30;32.60;;;;;;908238;154;26289;-75
2023/06/11 07:28:08;;;;;;;2.42;2.33;;;43.50;32.70;;;;;;905893;154;26332;-75
2023/06/11 07:30:35;;;;;;;3.00;2.80;;;43.70;32.20;;;;;;907453;154;26327;-75
2023/06/11 07:33:01;;;;;;;2.85;2.65;;;44.00;31.90;;;;;;933455;151;26357;-75
2023/06/11 07:35:28;;;;;;;2.67;2.47;;;44.20;31.20;;;;;;937076;151;26270;-75
2023/06/11 07:37:55;;;;;;;3.00;2.50;;;44.40;31.00;;;;;;921160;153;26331;-75
2023/06/11 07:40:21;;;;;;;2.90;2.70;;;44.40;30.60;;;;;;920982;153;26344;-75
2023/06/11 07:42:48;;;;;;;3.40;3.10;;;44.50;30.30;;;;;;919772;153;26284;-75
2023/06/11 07:45:14;;;;;;;2.65;2.55;;;44.60;30.60;;;;;;933689;150;26440;-75
2023/06/11 07:47:41;;;;;;;3.02;2.83;;;44.60;29.90;;;;;;935015;150;26279;-75
2023/06/11 07:50:08;;;;;;;2.58;2.37;;;44.60;29.90;;;;;;937515;151;26333;-75
2023/06/11 07:52:34;;;;;;;2.92;2.70;;;44.60;29.90;;;;;;935209;151;26364;-75
2023/06/11 07:55:01;;;;;;;3.12;2.83;;;44.60;29.70;;;;;;926588;151;26415;-75
2023/06/11 07:57:27;;;;;;;3.58;2.72;;;44.80;29.60;;;;;;923920;152;26381;-75
2023/06/11 07:59:54;;;;;;;2.70;2.50;;;44.80;29.40;;;;;;917795;153;26274;-75
2023/06/11 08:02:21;;;;;;;2.75;2.55;;;44.90;29.00;;;;;;916933;154;26252;-75
2023/06/11 08:04:47;;;;;;;2.87;2.67;;;45.00;28.80;;;;;;916118;154;26282;-75
2023/06/11 08:07:14;;;;;;;5.05;2.70;;;44.90;28.70;;;;;;916650;154;26303;-75
2023/06/11 08:09:40;;;;;;;2.70;2.50;;;44.80;28.50;;;;;;916788;154;26280;-75
2023/06/11 08:12:07;;;;;;;3.02;2.72;;;44.80;28.60;;;;;;916732;154;26334;-75
2023/06/11 08:14:34;;;;;;;2.85;2.47;;;44.80;28.50;;;;;;904755;156;26283;-75
2023/06/11 08:17:00;;;;;;;3.50;2.85;;;44.90;28.50;;;;;;905256;155;26326;-75
2023/06/11 08:19:27;;;;;;;3.12;2.92;;;45.00;28.20;;;;;;924302;150;26296;-75
2023/06/11 08:21:56;;;;;;;2.75;2.55;;;45.00;28.00;;;;;;926593;151;26237;-75
2023/06/11 08:24:23;;;;;;;3.10;2.80;;;44.90;27.90;;;;;;921605;152;26301;-75
2023/06/11 08:26:49;;;;;;;2.80;2.60;;;44.90;28.00;;;;;;906794;155;26271;-75
2023/06/11 08:29:16;;;;;;;2.77;2.60;;;44.80;27.70;;;;;;901087;156;26454;-75
2023/06/11 08:31:42;;;;;;;2.75;2.55;;;44.80;27.90;;;;;;903190;154;26271;-76
2023/06/11 08:34:09;;;;;;;3.08;2.87;;;44.80;27.80;;;;;;890535;156;26289;-75
2023/06/11 08:36:36;;;;;;;10.75;3.35;;;44.80;27.70;;;;;;921777;152;26331;-75
2023/06/11 08:39:02;;;;;;;3.25;2.80;;;44.90;27.90;;;;;;921134;152;26309;-75
2023/06/11 08:41:29;;;;;;;3.20;2.90;;;44.90;27.40;;;;;;915711;154;26375;-75
2023/06/11 08:43:55;;;;;;;2.80;2.60;;;45.00;27.10;;;;;;904781;155;26246;-75
2023/06/11 08:46:22;;;;;;;2.87;2.67;;;45.10;26.90;;;;;;890336;155;26220;-76
2023/06/11 08:48:48;;;;;;;5.90;2.87;;;45.20;27.00;;;;;;891581;155;26279;-76
2023/06/11 08:51:15;;;;;;;4.17;2.83;;;45.30;26.80;;;;;;890334;155;26305;-76
2023/06/11 08:53:42;;;;;;;2.72;2.52;;;45.40;27.00;;;;;;890845;155;26251;-75
2023/06/11 08:56:08;;;;;;;2.62;2.42;;;45.50;26.60;;;;;;893217;156;26438;-75
2023/06/11 08:58:35;;;;;;;2.70;2.50;;;45.60;26.10;;;;;;890268;156;26279;-75
2023/06/11 09:01:10;;;;;;;4.47;2.50;;;45.80;26.20;;;;;;891972;156;26304;-75
2023/06/11 09:03:37;;;;;;;2.62;2.42;;;45.80;25.90;;;;;;911618;154;26264;-75
2023/06/11 09:06:03;;;;;;;2.87;2.67;;;46.00;25.60;;;;;;912702;154;26285;-76
2023/06/11 09:08:30;;;;;;;2.90;2.70;;;46.00;25.40;;;;;;924798;152;26359;-76
2023/06/11 09:10:57;;;;;;;3.62;2.60;;;46.00;25.00;;;;;;926610;152;26284;-76
2023/06/11 09:13:26;;;;;;;2.90;2.42;;;45.80;25.00;;;;;;923871;152;26345;-75
2023/06/11 09:15:53;;;;;;;2.80;2.60;;;45.80;25.00;;;;;;911368;154;26331;-75
2023/06/11 09:18:25;;;;;;;2.40;2.30;;;45.60;25.10;;;;;;910106;155;26251;-75
2023/06/11 09:20:54;;;;;;;2.67;2.47;;;45.70;25.10;;;;;;907680;156;26443;-75
2023/06/11 09:23:30;;;;;;;3.12;2.25;;;45.60;25.10;;;;;;924032;152;27738;-75
2023/06/11 09:25:56;;;;;;;2.92;2.60;;;45.70;25.00;;;;;;925177;152;26244;-75
2023/06/11 09:28:29;;;;;;;4.22;2.70;;;45.70;24.60;;;;;;924930;152;26229;-75
2023/06/11 09:30:55;;;;;;;3.37;2.77;;;45.60;24.40;;;;;;924543;152;26397;-75
2023/06/11 09:33:22;;;;;;;3.75;2.65;;;45.50;24.70;;;;;;909440;155;26389;-75
2023/06/11 09:35:48;;;;;;;2.37;2.22;;;45.30;25.10;;;;;;913422;154;26285;-75
2023/06/11 09:38:18;;;;;;;2.83;2.62;;;45.20;24.80;;;;;;914891;155;26277;-75
2023/06/11 09:40:50;;;;;;;2.95;2.75;;;45.20;24.80;;;;;;918913;153;26325;-75
2023/06/11 09:43:21;;;;;;;2.80;2.55;;;45.10;24.60;;;;;;892169;156;26288;-75
2023/06/11 09:45:48;;;;;;;2.42;2.25;;;44.90;24.60;;;;;;892170;159;26422;-75
2023/06/11 09:48:13;;;;;;;2.45;2.35;;;44.80;24.80;;;;;;912303;154;26347;-75
2023/06/11 09:50:40;;;;;;;2.40;2.20;;;44.60;24.40;;;;;;924467;152;26292;-75
2023/06/11 09:53:06;;;;;;;2.67;2.47;;;44.40;24.30;;;;;;925750;152;26253;-75
2023/06/11 09:55:36;;;;;;;4.08;2.37;;;44.30;24.00;;;;;;912785;154;26361;-75
2023/06/11 09:58:02;;;;;;;2.70;2.50;;;43.90;23.90;;;;;;917984;154;26286;-75
2023/06/11 10:00:29;;;;;;;6.35;2.92;;;43.50;23.80;;;;;;917365;153;26268;-75
2023/06/11 10:02:56;;;;;;;2.83;2.60;;;43.00;23.80;;;;;;915591;154;26317;-75
2023/06/11 10:05:22;;;;;;;3.87;2.70;;;42.40;23.80;;;;;;913495;154;26311;-75
2023/06/11 10:07:51;;;;;;;2.75;2.55;;;41.70;23.90;;;;;;917293;154;26386;-75
2023/06/11 10:10:18;;;;;;;3.20;3.00;;;41.10;24.40;;;;;;917720;153;26269;-75
2023/06/11 10:12:51;;;;;;;2.95;2.75;;;40.50;24.40;;;;;;906076;155;26325;-75
2023/06/11 10:15:17;;;;;;;3.55;3.02;;;40.00;24.70;;;;;;912191;155;26731;-75
2023/06/11 10:17:47;;;;;;;4.10;2.98;;;39.40;24.90;;;;;;922092;152;26319;-75
2023/06/11 10:20:25;;;;;;;4.22;2.83;;;38.90;25.10;;;;;;912182;151;26297;-75
2023/06/11 10:22:51;;;;;;;3.40;3.20;;;38.50;25.20;;;;;;901263;155;26317;-75
2023/06/11 10:25:18;;;;;;;2.75;2.58;;;38.00;25.20;;;;;;921505;152;26320;-75
2023/06/11 10:27:45;;;;;;;3.12;2.92;;;37.60;25.20;;;;;;923627;152;27331;-75
2023/06/11 10:30:11;;;;;;;3.08;2.80;;;37.20;25.40;;;;;;915970;154;27474;-75
2023/06/11 10:32:38;;;;;;;5.20;3.45;;;36.90;25.70;;;;;;920146;152;27387;-75
2023/06/11 10:35:06;;;;;;;3.40;3.10;;;36.50;25.80;;;;;;903305;155;27409;-75
2023/06/11 10:37:35;;;;;;;3.70;3.40;;;36.10;25.90;;;;;;900614;155;27330;-75
2023/06/11 10:39:57;;;;;;;3.62;3.33;;;35.70;26.00;;;;;;921709;152;27308;-75
2023/06/11 10:42:24;;;;;;;3.30;3.00;;;35.30;26.60;;;;;;925161;152;27868;-75
2023/06/11 10:44:51;;;;;;;3.50;3.20;;;35.00;26.50;;;;;;923604;152;27473;-75
2023/06/11 10:47:17;;;;;;;3.65;3.35;;;34.80;26.90;;;;;;890391;155;27390;-75
2023/06/11 10:49:44;;;;;;;3.08;2.87;;;34.50;27.20;;;;;;890710;155;27361;-75
2023/06/11 10:52:10;;;;;;;3.47;2.92;;;34.30;27.30;;;;;;889923;155;27351;-75
2023/06/11 10:54:37;;;;;;;4.72;3.45;;;34.00;27.40;;;;;;891527;155;27501;-75
2023/06/11 10:57:04;;;;;;;6.12;3.12;;;33.90;27.70;;;;;;888484;155;27458;-75
2023/06/11 10:59:31;;;;;;;3.40;3.10;;;33.70;27.80;;;;;;889109;155;27478;-75
2023/06/11 11:01:57;;;;;;;3.55;3.22;;;33.60;28.10;;;;;;890289;155;27407;-75
2023/06/11 11:04:23;;;;;;;3.90;3.60;;;33.40;28.20;;;;;;891867;155;27385;-75
2023/06/11 11:06:53;;;;;;;3.37;3.12;;;33.30;28.50;;;;;;889334;155;27398;-75
2023/06/11 11:09:23;;;;;;;3.50;3.17;;;33.30;28.70;;;;;;890659;155;27378;-75
2023/06/11 11:11:49;;;;;;;3.70;3.40;;;33.20;28.10;;;;;;891106;155;27437;-75
2023/06/11 11:14:17;;;;;;;4.33;3.70;;;33.10;28.60;;;;;;889578;155;27462;-75
2023/06/11 11:16:43;;;;;;;3.90;3.42;;;33.10;28.80;;;;;;891185;155;27346;-75
2023/06/11 11:19:09;;;;;;;3.92;3.62;;;32.90;28.70;;;;;;892890;155;27429;-75
2023/06/11 11:21:36;;;;;;;3.75;3.40;;;32.90;28.90;;;;;;893436;155;27272;-75
2023/06/11 11:24:03;;;;;;;3.33;3.02;;;32.80;28.90;;;;;;915992;154;27369;-75
2023/06/11 11:26:29;;;;;;;3.27;2.95;;;32.80;28.90;;;;;;918726;154;27385;-75
2023/06/11 11:28:55;;;;;;;3.77;3.45;;;32.70;28.90;;;;;;922560;152;27369;-75
2023/06/11 11:31:22;;;;;;;3.52;3.00;;;32.70;29.00;;;;;;907368;155;27360;-75
2023/06/11 11:33:50;;;;;;;3.17;2.98;;;32.70;29.20;;;;;;906112;155;27380;-75
2023/06/11 11:36:15;;;;;;;3.30;3.00;;;32.60;29.10;;;;;;891502;156;27387;-75
2023/06/11 11:38:42;;;;;;;3.52;3.22;;;32.70;29.20;;;;;;923138;152;27385;-75
2023/06/11 11:41:09;;;;;;;4.08;3.20;;;32.60;29.20;;;;;;918703;154;27456;-75
2023/06/11 11:43:38;;;;;;;3.05;2.85;;;32.60;29.70;;;;;;923751;152;27454;-75
2023/06/11 11:46:04;;;;;;;3.35;2.90;;;32.60;29.20;;;;;;923412;152;27351;-75
2023/06/11 11:48:32;;;;;;;2.85;2.65;;;32.60;29.20;;;;;;914690;153;27437;-75
2023/06/11 11:51:06;;;;;;;4.90;3.00;;;32.60;29.20;;;;;;918017;153;27367;-75
2023/06/11 11:53:32;;;;;;;3.10;2.80;;;32.60;29.20;;;;;;923117;152;27326;-75
2023/06/11 11:55:59;;;;;;;3.33;2.87;;;32.60;29.20;;;;;;921041;152;27310;-75
2023/06/11 11:58:26;;;;;;;3.42;3.12;;;32.60;29.10;;;;;;907612;155;27390;-75
2023/06/11 12:00:52;;;;;;;3.08;2.87;;;32.60;29.40;;;;;;922335;152;27792;-75
2023/06/11 12:03:19;;;;;;;3.37;3.17;;;32.70;29.30;;;;;;924786;152;27322;-75
2023/06/11 12:05:45;;;;;;;3.02;2.80;;;32.70;29.20;;;;;;920904;152;27425;-75
2023/06/11 12:08:12;;;;;;;3.40;3.10;;;32.70;29.00;;;;;;921839;152;27287;-75
2023/06/11 12:10:38;;;;;;;2.95;2.75;;;32.70;29.00;;;;;;922030;152;27698;-75
2023/06/11 12:13:07;;;;;;;3.20;3.00;;;32.70;28.90;;;;;;920345;152;27450;-75
2023/06/11 12:15:32;;;;;;;3.40;2.87;;;32.60;29.00;;;;;;914995;153;27441;-75
2023/06/11 12:17:58;;;;;;;3.35;3.05;;;32.60;28.90;;;;;;923964;152;27320;-75
2023/06/11 12:20:25;;;;;;;3.10;2.90;;;32.60;29.20;;;;;;890511;155;27369;-75
2023/06/11 12:22:51;;;;;;;3.33;3.02;;;32.60;29.30;;;;;;892484;155;27753;-75
2023/06/11 12:25:18;;;;;;;4.00;2.80;;;32.60;29.20;;;;;;891035;155;27441;-75
2023/06/11 12:27:45;;;;;;;3.27;2.92;;;32.70;29.30;;;;;;890768;155;27376;-78
2023/06/11 12:30:11;;;;;;;3.65;3.12;;;32.70;29.20;;;;;;891859;155;27399;-78
2023/06/11 12:32:38;;;;;;;3.50;3.20;;;32.70;29.20;;;;;;889881;155;27433;-78
2023/06/11 12:35:04;;;;;;;3.30;2.98;;;32.80;29.30;;;;;;891375;155;27536;-77
2023/06/11 12:37:31;;;;;;;3.02;2.83;;;32.80;29.20;;;;;;890342;155;27384;-78
2023/06/11 12:39:58;;;;;;;2.98;2.77;;;32.70;29.20;;;;;;891753;155;27447;-78
2023/06/11 12:42:25;;;;;;;3.45;3.15;;;32.80;29.20;;;;;;891690;155;27351;-78
2023/06/11 12:44:51;;;;;;;3.17;2.90;;;32.80;29.20;;;;;;890638;155;27494;-78